Time;durP1;ratioP1;P1;durP2;ratioP2;P2;SDS_P1;SDS_P2;PMS_P1;PMS_P2;Temp;Humidity;BMP_temperature;BMP_pressure;BME280_temperature;BME280_humidity;BME280_pressure;Samples;Min_cycle;Max_cycle;Signal;HPM_P1;HPM_P2
2023/09/26 00:01:44;;;;;;;26.15;6.05;;;15.20;99.90;;;;;;5033747;28;20041;-54
2023/09/26 00:04:10;;;;;;;23.70;5.82;;;15.20;99.90;;;;;;5033926;28;20116;-55
2023/09/26 00:06:38;;;;;;;22.67;5.60;;;15.20;99.90;;;;;;5033607;28;20120;-52
2023/09/26 00:09:05;;;;;;;24.38;5.93;;;15.20;99.90;;;;;;5034069;28;20481;-58
2023/09/26 00:11:34;;;;;;;23.55;5.63;;;15.20;99.90;;;;;;5033556;28;20051;-54
2023/09/26 00:14:00;;;;;;;24.05;6.13;;;15.20;99.90;;;;;;5033538;28;20049;-57
2023/09/26 00:16:27;;;;;;;25.08;5.82;;;15.10;99.90;;;;;;5033419;28;20044;-54
2023/09/26 00:18:54;;;;;;;19.98;4.88;;;15.10;99.90;;;;;;5033607;28;20039;-52
2023/09/26 00:21:21;;;;;;;20.77;5.82;;;15.10;99.90;;;;;;5033451;28;20095;-54
2023/09/26 00:23:48;;;;;;;28.38;5.57;;;15.10;99.90;;;;;;5033683;28;20050;-54
2023/09/26 00:26:15;;;;;;;23.13;5.00;;;15.10;99.90;;;;;;5033247;28;20049;-56
2023/09/26 00:28:45;;;;;;;23.90;5.40;;;15.10;99.90;;;;;;5033606;28;20107;-56
2023/09/26 00:31:12;;;;;;;22.63;5.15;;;15.00;99.90;;;;;;5031959;28;20051;-53
2023/09/26 00:33:39;;;;;;;23.88;5.47;;;15.00;99.90;;;;;;5031494;28;20469;-54
2023/09/26 00:36:06;;;;;;;23.48;5.40;;;15.00;99.90;;;;;;5033793;28;20430;-55
2023/09/26 00:38:32;;;;;;;23.17;5.28;;;15.00;99.90;;;;;;5033167;28;20033;-51
2023/09/26 00:40:59;;;;;;;20.08;5.32;;;14.90;99.90;;;;;;5032063;28;20118;-56
2023/09/26 00:43:26;;;;;;;28.23;6.53;;;14.90;99.90;;;;;;5033354;28;20037;-56
2023/09/26 00:45:53;;;;;;;24.35;5.00;;;14.80;99.90;;;;;;5033298;28;20042;-57
2023/09/26 00:48:20;;;;;;;22.48;5.00;;;14.80;99.90;;;;;;5033101;28;20041;-53
2023/09/26 00:50:47;;;;;;;24.10;4.75;;;14.70;99.90;;;;;;5031730;28;20457;-57
2023/09/26 00:53:14;;;;;;;22.48;4.97;;;14.70;99.90;;;;;;5033283;28;20041;-56
2023/09/26 00:55:40;;;;;;;24.98;5.22;;;14.70;99.90;;;;;;5033144;28;20048;-53
2023/09/26 00:58:08;;;;;;;24.75;4.93;;;14.60;99.90;;;;;;5033021;28;20460;-56
2023/09/26 01:00:35;;;;;;;19.45;5.57;;;14.60;99.90;;;;;;5033425;28;20473;-55
2023/09/26 01:03:03;;;;;;;25.83;5.00;;;14.60;99.90;;;;;;5031742;28;20049;-55
2023/09/26 01:05:29;;;;;;;19.52;5.13;;;14.60;99.90;;;;;;5031966;28;20507;-55
2023/09/26 01:07:56;;;;;;;21.98;5.10;;;14.60;99.90;;;;;;5032898;28;20404;-57
2023/09/26 01:10:23;;;;;;;24.27;5.00;;;14.60;99.90;;;;;;5031325;28;20081;-54
2023/09/26 01:12:50;;;;;;;20.02;5.00;;;14.60;99.90;;;;;;5032899;28;20374;-54
2023/09/26 01:15:17;;;;;;;21.80;5.30;;;14.70;99.90;;;;;;5031641;28;20107;-54
2023/09/26 01:17:44;;;;;;;25.33;5.47;;;14.70;99.90;;;;;;5033173;28;20053;-57
2023/09/26 01:20:15;;;;;;;21.23;5.85;;;14.70;99.90;;;;;;5032922;28;20038;-52
2023/09/26 01:22:44;;;;;;;18.40;5.38;;;14.70;99.90;;;;;;5033011;28;20045;-56
2023/09/26 01:25:10;;;;;;;19.20;4.10;;;14.70;99.90;;;;;;5031361;28;20076;-53
2023/09/26 01:27:37;;;;;;;17.33;4.65;;;14.70;99.90;;;;;;5031509;28;20140;-53
2023/09/26 01:30:04;;;;;;;18.60;4.97;;;14.70;99.90;;;;;;5031706;28;20042;-56
2023/09/26 01:32:31;;;;;;;17.95;4.53;;;14.70;99.90;;;;;;5033224;28;20047;-53
2023/09/26 01:34:58;;;;;;;22.95;5.28;;;14.70;99.90;;;;;;5033008;28;20461;-51
2023/09/26 01:37:25;;;;;;;17.63;5.00;;;14.70;99.90;;;;;;5031785;28;20429;-54
2023/09/26 01:39:52;;;;;;;24.83;6.00;;;14.70;99.90;;;;;;5032604;28;20041;-56
2023/09/26 01:42:19;;;;;;;25.95;5.30;;;14.70;99.90;;;;;;5032794;28;20054;-54
2023/09/26 01:44:46;;;;;;;21.00;4.78;;;14.70;99.90;;;;;;5033246;28;20532;-55
2023/09/26 01:47:13;;;;;;;19.85;4.35;;;14.70;99.90;;;;;;5035802;28;20092;-53
2023/09/26 01:49:41;;;;;;;24.50;5.10;;;14.70;99.90;;;;;;5034970;28;20045;-51
2023/09/26 01:52:08;;;;;;;20.67;4.72;;;14.70;99.90;;;;;;5035878;28;20061;-52
2023/09/26 01:54:35;;;;;;;21.67;5.03;;;14.70;99.90;;;;;;5035862;28;20087;-56
2023/09/26 01:57:02;;;;;;;16.00;4.47;;;14.80;99.90;;;;;;5036345;28;20030;-55
2023/09/26 01:59:29;;;;;;;16.80;4.20;;;14.80;99.90;;;;;;5035273;28;20381;-51
2023/09/26 02:01:56;;;;;;;21.42;4.30;;;14.80;99.90;;;;;;5034763;28;20117;-55
2023/09/26 02:04:23;;;;;;;22.75;5.20;;;14.70;99.90;;;;;;5036380;28;20048;-56
2023/09/26 02:06:50;;;;;;;19.75;5.07;;;14.60;99.90;;;;;;5034731;28;20049;-54
2023/09/26 02:09:17;;;;;;;17.60;4.32;;;14.60;99.90;;;;;;5035622;28;20064;-51
2023/09/26 02:11:43;;;;;;;18.70;4.78;;;14.50;99.90;;;;;;5035918;28;20503;-53
2023/09/26 02:14:10;;;;;;;23.05;5.07;;;14.50;99.90;;;;;;5018196;28;20049;-55
2023/09/26 02:16:38;;;;;;;18.95;4.90;;;14.50;99.90;;;;;;5034103;28;20046;-55
2023/09/26 02:19:05;;;;;;;26.80;5.15;;;14.50;99.90;;;;;;5034529;28;20045;-50
2023/09/26 02:21:32;;;;;;;18.30;4.53;;;14.50;99.90;;;;;;5034488;28;20052;-52
2023/09/26 02:23:59;;;;;;;15.13;4.55;;;14.50;99.90;;;;;;5035593;28;20053;-53
2023/09/26 02:26:25;;;;;;;24.77;5.10;;;14.50;99.90;;;;;;5035503;28;20103;-49
2023/09/26 02:28:52;;;;;;;17.15;4.50;;;14.50;99.90;;;;;;5035388;28;20380;-52
2023/09/26 02:31:19;;;;;;;18.67;4.93;;;14.40;99.90;;;;;;5035156;28;20121;-55
2023/09/26 02:33:46;;;;;;;20.00;4.88;;;14.50;99.90;;;;;;5035432;28;20072;-52
2023/09/26 02:36:13;;;;;;;19.40;4.88;;;14.50;99.90;;;;;;5034867;28;20040;-56
2023/09/26 02:38:40;;;;;;;20.90;4.68;;;14.50;99.90;;;;;;5033869;28;20045;-56
2023/09/26 02:41:06;;;;;;;19.10;5.22;;;14.50;99.90;;;;;;5034920;28;20111;-50
2023/09/26 02:43:34;;;;;;;18.88;5.20;;;14.60;99.90;;;;;;5034022;28;20133;-52
2023/09/26 02:46:01;;;;;;;15.15;4.05;;;14.60;99.90;;;;;;5033464;28;20635;-54
2023/09/26 02:48:27;;;;;;;21.05;4.78;;;14.60;99.90;;;;;;5034760;28;20115;-56
2023/09/26 02:50:54;;;;;;;18.40;4.85;;;14.60;99.90;;;;;;5035077;28;20073;-55
2023/09/26 02:53:21;;;;;;;22.35;5.28;;;14.70;99.90;;;;;;5034653;28;20041;-53
2023/09/26 02:55:48;;;;;;;19.92;4.53;;;14.70;99.90;;;;;;5034977;28;20042;-57
2023/09/26 02:58:15;;;;;;;19.13;5.15;;;14.70;99.90;;;;;;5033954;28;20041;-56
2023/09/26 03:00:42;;;;;;;20.17;4.70;;;14.70;99.90;;;;;;5034997;28;20099;-54
2023/09/26 03:03:09;;;;;;;20.30;4.38;;;14.70;99.90;;;;;;5034924;28;20041;-51
2023/09/26 03:05:36;;;;;;;16.35;4.30;;;14.70;99.90;;;;;;5033462;28;20053;-53
2023/09/26 03:08:03;;;;;;;23.13;4.85;;;14.70;99.90;;;;;;5034809;28;20052;-56
2023/09/26 03:10:30;;;;;;;22.02;4.25;;;14.60;99.90;;;;;;5033838;28;20463;-55
2023/09/26 03:12:56;;;;;;;13.60;4.68;;;14.70;99.90;;;;;;5034885;28;20042;-53
2023/09/26 03:15:23;;;;;;;15.43;4.38;;;14.70;99.90;;;;;;5034753;28;20042;-55
2023/09/26 03:17:50;;;;;;;15.40;4.28;;;14.70;99.90;;;;;;5033570;28;20473;-52
2023/09/26 03:20:17;;;;;;;19.20;4.90;;;14.70;99.90;;;;;;5034464;28;20546;-56
2023/09/26 03:22:45;;;;;;;18.77;4.47;;;14.70;99.90;;;;;;5034601;28;20116;-55
2023/09/26 03:25:12;;;;;;;17.63;4.68;;;14.70;99.90;;;;;;5034328;28;20093;-54
2023/09/26 03:27:39;;;;;;;17.80;4.35;;;14.70;99.90;;;;;;5034512;28;20034;-52
2023/09/26 03:30:06;;;;;;;12.70;4.03;;;14.80;99.90;;;;;;5033349;28;20045;-54
2023/09/26 03:32:33;;;;;;;18.20;4.40;;;14.70;99.90;;;;;;5034245;28;20041;-57
2023/09/26 03:35:00;;;;;;;16.83;5.07;;;14.70;99.90;;;;;;5034252;28;20073;-52
2023/09/26 03:37:27;;;;;;;17.95;5.15;;;14.70;99.90;;;;;;5034277;28;20038;-56
2023/09/26 03:39:54;;;;;;;18.25;4.28;;;14.70;99.90;;;;;;5034476;28;20052;-55
2023/09/26 03:42:21;;;;;;;19.08;4.32;;;14.70;99.90;;;;;;5034050;28;20045;-54
2023/09/26 03:44:47;;;;;;;19.02;5.30;;;14.70;99.90;;;;;;5034344;28;20053;-54
2023/09/26 03:47:14;;;;;;;19.85;4.40;;;14.70;99.90;;;;;;5033936;28;20045;-56
2023/09/26 03:49:41;;;;;;;20.58;4.85;;;14.70;99.90;;;;;;5034280;28;20053;-54
2023/09/26 03:52:08;;;;;;;19.92;4.82;;;14.70;99.90;;;;;;5034090;28;20056;-52
2023/09/26 03:54:35;;;;;;;21.35;5.00;;;14.80;99.90;;;;;;5016614;28;20045;-52
2023/09/26 03:57:04;;;;;;;23.48;4.78;;;14.80;99.90;;;;;;5033738;28;20107;-55
2023/09/26 03:59:31;;;;;;;20.70;4.35;;;14.80;99.90;;;;;;5032530;28;20138;-54
2023/09/26 04:01:57;;;;;;;20.15;4.75;;;14.80;99.90;;;;;;5033619;28;20052;-56
2023/09/26 04:04:25;;;;;;;15.38;4.43;;;14.80;99.90;;;;;;5033353;28;20095;-53
2023/09/26 04:06:51;;;;;;;19.58;5.13;;;14.80;99.90;;;;;;5032221;28;20477;-53
2023/09/26 04:09:18;;;;;;;17.38;4.47;;;14.80;99.90;;;;;;5033760;28;20045;-51
2023/09/26 04:11:45;;;;;;;15.93;4.07;;;14.80;99.90;;;;;;5033319;28;20037;-52
2023/09/26 04:14:12;;;;;;;15.88;5.00;;;14.90;99.90;;;;;;5033551;28;20502;-54
2023/09/26 04:16:38;;;;;;;21.27;4.95;;;14.90;99.90;;;;;;5033405;28;20499;-50
2023/09/26 04:19:06;;;;;;;15.75;4.85;;;14.90;99.90;;;;;;5033703;28;20471;-54
2023/09/26 04:21:33;;;;;;;18.75;5.15;;;14.90;99.90;;;;;;5033851;28;20045;-51
2023/09/26 04:24:04;;;;;;;17.75;4.85;;;14.90;99.90;;;;;;5033552;28;20052;-54
2023/09/26 04:26:30;;;;;;;17.75;5.32;;;14.90;99.90;;;;;;5033411;28;20484;-51
2023/09/26 04:28:57;;;;;;;13.40;4.53;;;14.90;99.90;;;;;;5033384;28;20053;-57
2023/09/26 04:31:24;;;;;;;17.13;4.68;;;15.00;99.90;;;;;;5031759;28;20056;-53
2023/09/26 04:33:51;;;;;;;16.45;5.10;;;15.00;99.90;;;;;;5033388;28;20128;-53
2023/09/26 04:36:18;;;;;;;14.25;4.50;;;15.00;99.90;;;;;;5033221;28;20041;-56
2023/09/26 04:38:45;;;;;;;13.15;4.45;;;15.00;99.90;;;;;;5033230;28;20044;-54
2023/09/26 04:41:13;;;;;;;15.15;4.78;;;15.10;99.90;;;;;;5033337;28;20042;-56
2023/09/26 04:43:40;;;;;;;15.25;4.53;;;15.10;99.90;;;;;;5033582;28;20539;-55
2023/09/26 04:46:07;;;;;;;17.77;4.90;;;15.10;99.90;;;;;;5033241;28;20461;-51
2023/09/26 04:48:33;;;;;;;14.90;4.38;;;15.20;99.90;;;;;;5033442;28;20037;-54
2023/09/26 04:51:00;;;;;;;14.13;4.97;;;15.20;99.90;;;;;;5033069;28;20045;-52
2023/09/26 04:53:27;;;;;;;12.60;4.22;;;15.30;99.90;;;;;;5032959;28;20041;-52
2023/09/26 04:55:54;;;;;;;13.82;3.83;;;15.30;99.90;;;;;;5033007;28;20140;-56
2023/09/26 04:58:21;;;;;;;17.55;4.22;;;15.20;99.90;;;;;;5033086;28;20076;-54
2023/09/26 05:00:47;;;;;;;15.80;4.18;;;15.30;99.90;;;;;;5033103;28;20061;-54
2023/09/26 05:03:15;;;;;;;17.02;4.40;;;15.30;99.90;;;;;;5033002;28;20033;-51
2023/09/26 05:05:42;;;;;;;14.15;3.90;;;15.30;99.90;;;;;;5031997;28;20046;-54
2023/09/26 05:08:08;;;;;;;15.00;4.55;;;15.40;99.90;;;;;;5032999;28;20045;-52
2023/09/26 05:10:35;;;;;;;14.52;4.25;;;15.40;99.90;;;;;;5033071;28;20459;-52
2023/09/26 05:13:02;;;;;;;16.75;4.53;;;15.40;99.90;;;;;;5033280;28;20480;-56
2023/09/26 05:15:29;;;;;;;11.93;4.13;;;15.50;99.90;;;;;;5033082;28;20118;-56
2023/09/26 05:17:57;;;;;;;20.30;4.90;;;15.50;99.90;;;;;;5033283;28;20037;-55
2023/09/26 05:20:24;;;;;;;12.18;3.63;;;15.50;99.90;;;;;;5034142;28;20392;-54
2023/09/26 05:22:51;;;;;;;15.15;4.43;;;15.60;99.90;;;;;;5036604;28;20041;-56
2023/09/26 05:25:18;;;;;;;11.57;4.63;;;15.60;99.90;;;;;;5036780;28;20048;-53
2023/09/26 05:27:45;;;;;;;13.65;4.57;;;15.70;99.90;;;;;;5036566;28;20140;-52
2023/09/26 05:30:11;;;;;;;10.90;4.47;;;15.70;99.90;;;;;;5035066;28;20385;-55
2023/09/26 05:32:38;;;;;;;11.38;4.22;;;15.80;99.90;;;;;;5036125;28;20041;-57
2023/09/26 05:35:06;;;;;;;12.95;3.95;;;15.80;99.90;;;;;;5036424;28;20039;-52
2023/09/26 05:37:33;;;;;;;14.07;4.90;;;15.80;99.90;;;;;;5035298;28;20044;-56
2023/09/26 05:40:00;;;;;;;15.00;4.93;;;15.80;99.90;;;;;;5036193;28;20037;-52
2023/09/26 05:42:27;;;;;;;12.75;4.80;;;15.80;99.90;;;;;;5036037;28;20045;-53
2023/09/26 05:44:55;;;;;;;14.18;4.78;;;15.80;99.90;;;;;;5036481;28;20128;-54
2023/09/26 05:47:22;;;;;;;11.73;4.60;;;15.80;99.90;;;;;;5036111;28;20519;-53
2023/09/26 05:49:51;;;;;;;14.23;4.75;;;15.80;99.90;;;;;;5035993;28;20037;-51
2023/09/26 05:52:20;;;;;;;14.43;5.00;;;15.80;99.90;;;;;;5036133;28;20473;-56
2023/09/26 05:54:47;;;;;;;17.13;5.80;;;15.90;99.90;;;;;;5036291;28;20443;-53
2023/09/26 05:57:14;;;;;;;15.52;5.90;;;15.90;99.90;;;;;;5035927;28;20077;-53
2023/09/26 05:59:41;;;;;;;16.45;5.35;;;15.90;99.90;;;;;;5036129;28;20408;-51
2023/09/26 06:02:07;;;;;;;12.35;4.97;;;16.00;99.90;;;;;;5034685;28;20049;-52
2023/09/26 06:04:34;;;;;;;12.60;5.70;;;16.00;99.90;;;;;;5036436;28;20129;-50
2023/09/26 06:07:01;;;;;;;11.80;5.32;;;16.00;99.90;;;;;;5035888;28;20073;-54
2023/09/26 06:09:28;;;;;;;12.82;5.47;;;16.10;99.90;;;;;;5035965;28;20103;-55
2023/09/26 06:11:55;;;;;;;20.35;6.45;;;16.10;99.90;;;;;;5035779;28;20056;-55
2023/09/26 06:14:21;;;;;;;12.10;6.05;;;16.20;99.90;;;;;;5034652;28;20037;-55
2023/09/26 06:16:48;;;;;;;13.55;6.28;;;16.20;99.90;;;;;;5035757;28;20045;-56
2023/09/26 06:19:15;;;;;;;15.90;6.20;;;16.20;99.90;;;;;;5035680;28;20088;-55
2023/09/26 06:21:42;;;;;;;14.40;6.05;;;16.30;99.90;;;;;;5035321;28;20088;-53
2023/09/26 06:24:09;;;;;;;11.27;6.32;;;16.30;99.90;;;;;;5035833;28;20412;-55
2023/09/26 06:26:36;;;;;;;12.98;6.38;;;16.30;99.90;;;;;;5035663;28;20124;-56
2023/09/26 06:29:02;;;;;;;16.85;6.70;;;16.30;99.90;;;;;;5035412;28;20087;-55
2023/09/26 06:31:29;;;;;;;12.32;6.05;;;16.40;99.90;;;;;;5035618;28;20449;-55
2023/09/26 06:34:00;;;;;;;16.13;7.05;;;16.40;99.90;;;;;;5034120;28;20454;-57
2023/09/26 06:36:30;;;;;;;13.60;5.95;;;16.40;99.90;;;;;;5035331;28;20056;-52
2023/09/26 06:38:57;;;;;;;16.30;6.72;;;16.50;99.90;;;;;;5034907;28;20081;-55
2023/09/26 06:41:24;;;;;;;16.33;7.07;;;16.50;99.90;;;;;;5035132;28;20206;-53
2023/09/26 06:43:52;;;;;;;16.33;7.00;;;16.50;99.90;;;;;;5033972;28;20512;-54
2023/09/26 06:46:19;;;;;;;12.70;6.78;;;16.50;99.90;;;;;;5034991;28;20093;-54
2023/09/26 06:48:46;;;;;;;15.00;7.15;;;16.60;99.90;;;;;;5035251;28;20053;-53
2023/09/26 06:51:12;;;;;;;14.43;7.55;;;16.60;99.90;;;;;;5034593;28;20056;-55
2023/09/26 06:53:40;;;;;;;15.93;7.55;;;16.70;99.90;;;;;;5033645;28;20041;-55
2023/09/26 06:56:06;;;;;;;19.38;8.07;;;16.70;99.90;;;;;;5028673;28;20045;-55
2023/09/26 06:58:33;;;;;;;16.17;7.18;;;16.70;99.90;;;;;;5024821;28;20379;-55
2023/09/26 07:01:00;;;;;;;12.15;7.28;;;16.80;99.90;;;;;;5025715;28;20381;-52
2023/09/26 07:03:27;;;;;;;20.40;7.40;;;16.80;99.90;;;;;;5024048;28;20375;-53
2023/09/26 07:05:54;;;;;;;12.38;6.53;;;16.80;99.90;;;;;;5029112;28;20103;-55
2023/09/26 07:08:21;;;;;;;13.27;6.82;;;16.90;99.90;;;;;;5034583;28;20052;-53
2023/09/26 07:10:47;;;;;;;13.18;7.05;;;17.00;99.90;;;;;;5035130;28;20079;-53
2023/09/26 07:13:14;;;;;;;16.35;6.47;;;17.00;99.90;;;;;;5034608;28;20053;-55
2023/09/26 07:16:02;;;;;;;14.05;6.10;;;17.10;99.90;;;;;;5034790;28;20065;-55
2023/09/26 07:18:29;;;;;;;16.15;6.55;;;17.20;99.90;;;;;;5034582;28;20038;-56
2023/09/26 07:20:55;;;;;;;13.27;5.88;;;17.20;99.90;;;;;;5034626;28;20072;-57
2023/09/26 07:23:22;;;;;;;11.88;5.85;;;17.30;99.90;;;;;;5034467;28;20041;-55
2023/09/26 07:25:49;;;;;;;12.40;5.70;;;17.30;99.90;;;;;;5034213;28;20374;-56
2023/09/26 07:28:16;;;;;;;13.70;6.10;;;17.40;99.90;;;;;;5034534;28;20414;-56
2023/09/26 07:30:43;;;;;;;14.02;5.88;;;17.40;99.90;;;;;;5034258;28;20045;-56
2023/09/26 07:33:10;;;;;;;10.07;5.68;;;17.50;99.90;;;;;;5034326;28;20041;-53
2023/09/26 07:35:37;;;;;;;11.13;5.25;;;17.50;99.90;;;;;;5034074;28;20112;-52
2023/09/26 07:38:04;;;;;;;14.70;6.53;;;17.60;99.90;;;;;;5033956;28;20037;-54
2023/09/26 07:40:31;;;;;;;11.57;5.88;;;17.70;99.90;;;;;;5034379;28;20041;-57
2023/09/26 07:42:58;;;;;;;11.40;5.45;;;17.70;99.90;;;;;;5033732;28;20041;-52
2023/09/26 07:45:25;;;;;;;10.90;5.00;;;17.70;99.90;;;;;;5039217;28;20041;-53
2023/09/26 07:47:52;;;;;;;12.25;5.20;;;17.80;99.90;;;;;;5053701;28;20041;-50
2023/09/26 07:50:19;;;;;;;12.88;4.88;;;17.80;99.90;;;;;;5053388;28;20515;-54
2023/09/26 07:52:46;;;;;;;9.57;5.15;;;17.90;99.90;;;;;;5053684;28;20045;-52
2023/09/26 07:55:13;;;;;;;10.30;4.70;;;17.90;99.90;;;;;;5052559;28;20491;-52
2023/09/26 07:57:39;;;;;;;10.90;4.30;;;18.00;99.90;;;;;;5053794;28;20040;-55
2023/09/26 08:00:11;;;;;;;9.50;4.35;;;18.10;99.90;;;;;;5053846;28;20037;-53
2023/09/26 08:02:37;;;;;;;9.80;4.57;;;18.20;99.90;;;;;;5035211;28;20080;-52
2023/09/26 08:05:04;;;;;;;8.77;4.00;;;18.20;99.90;;;;;;5032031;28;20095;-57
2023/09/26 08:07:32;;;;;;;12.38;3.85;;;18.30;99.90;;;;;;5051594;28;20083;-54
2023/09/26 08:10:00;;;;;;;10.30;3.90;;;18.40;99.90;;;;;;5052479;28;20056;-54
2023/09/26 08:12:27;;;;;;;9.55;3.83;;;18.40;99.90;;;;;;5052832;28;20068;-53
2023/09/26 08:14:54;;;;;;;8.32;3.85;;;18.50;99.90;;;;;;5052708;28;20147;-53
2023/09/26 08:17:21;;;;;;;8.23;3.75;;;18.60;99.90;;;;;;5052612;28;20489;-53
2023/09/26 08:19:48;;;;;;;8.77;3.78;;;18.70;99.90;;;;;;5052459;28;20048;-53
2023/09/26 08:22:15;;;;;;;8.60;4.05;;;18.80;99.90;;;;;;5052236;28;20120;-54
2023/09/26 08:24:41;;;;;;;8.65;3.63;;;18.80;99.90;;;;;;5052256;28;20079;-53
2023/09/26 08:27:08;;;;;;;12.13;3.90;;;18.80;99.90;;;;;;5052974;28;20044;-55
2023/09/26 08:29:35;;;;;;;11.95;4.32;;;18.80;99.90;;;;;;5052868;28;20041;-55
2023/09/26 08:32:02;;;;;;;10.77;3.92;;;18.80;99.90;;;;;;5052767;28;20551;-51
2023/09/26 08:34:29;;;;;;;10.00;4.07;;;18.80;99.90;;;;;;5052553;28;20431;-49
2023/09/26 08:36:57;;;;;;;8.00;3.97;;;18.70;99.90;;;;;;5052376;28;20119;-49
2023/09/26 08:39:23;;;;;;;8.98;4.15;;;18.80;99.90;;;;;;5024589;28;20048;-51
2023/09/26 08:41:50;;;;;;;11.25;3.88;;;18.80;99.90;;;;;;5031673;28;20038;-54
2023/09/26 08:44:17;;;;;;;9.25;3.88;;;18.80;99.90;;;;;;5032712;28;20412;-49
2023/09/26 08:46:44;;;;;;;10.52;3.97;;;18.90;99.90;;;;;;5032244;28;20049;-48
2023/09/26 08:49:11;;;;;;;12.43;4.22;;;18.90;99.90;;;;;;5031674;28;20042;-47
2023/09/26 08:51:38;;;;;;;9.73;3.95;;;19.00;99.90;;;;;;5032052;28;20061;-48
2023/09/26 08:54:04;;;;;;;8.90;3.50;;;19.00;99.90;;;;;;5032169;28;20049;-50
2023/09/26 08:56:31;;;;;;;9.60;3.88;;;19.00;99.90;;;;;;5035148;28;20473;-50
2023/09/26 08:58:58;;;;;;;8.00;3.72;;;19.10;99.90;;;;;;5036315;28;20037;-49
2023/09/26 09:01:25;;;;;;;9.18;3.42;;;19.20;99.90;;;;;;5030070;28;20428;-52
2023/09/26 09:03:52;;;;;;;10.18;3.67;;;19.20;99.90;;;;;;5029993;28;20500;-49
2023/09/26 09:06:19;;;;;;;9.05;3.33;;;19.30;99.90;;;;;;5036287;28;20049;-55
2023/09/26 09:08:46;;;;;;;6.50;3.53;;;19.30;99.90;;;;;;5036243;28;20456;-55
2023/09/26 09:11:12;;;;;;;9.90;3.47;;;19.30;99.90;;;;;;5036318;28;20412;-55
2023/09/26 09:13:40;;;;;;;9.35;3.47;;;19.40;99.90;;;;;;5035900;28;20534;-56
2023/09/26 09:16:10;;;;;;;7.55;3.30;;;19.40;99.90;;;;;;5036044;28;20041;-53
2023/09/26 09:18:37;;;;;;;9.05;3.42;;;19.50;99.90;;;;;;5029557;28;20444;-53
2023/09/26 09:21:04;;;;;;;9.68;3.47;;;19.60;99.90;;;;;;5029509;28;20103;-52
2023/09/26 09:23:31;;;;;;;9.75;3.67;;;19.60;99.90;;;;;;5035994;28;20049;-56
2023/09/26 09:25:58;;;;;;;9.20;3.70;;;19.70;99.90;;;;;;5035872;28;20206;-56
2023/09/26 09:28:24;;;;;;;7.15;3.40;;;19.80;99.90;;;;;;5035886;28;20050;-52
2023/09/26 09:30:51;;;;;;;9.90;3.67;;;19.90;99.90;;;;;;5035477;28;20049;-53
2023/09/26 09:33:18;;;;;;;11.32;3.70;;;19.90;99.90;;;;;;5035106;28;20060;-52
2023/09/26 09:35:45;;;;;;;9.27;3.38;;;20.00;99.90;;;;;;5035680;28;20435;-49
2023/09/26 09:38:12;;;;;;;13.18;3.85;;;20.00;99.90;;;;;;5035576;28;20180;-49
2023/09/26 09:40:40;;;;;;;8.98;3.70;;;20.00;99.90;;;;;;5035667;28;20504;-49
2023/09/26 09:43:07;;;;;;;8.65;3.47;;;20.00;99.90;;;;;;5035446;28;20045;-55
2023/09/26 09:45:34;;;;;;;7.85;3.30;;;20.10;99.90;;;;;;5035733;28;20055;-48
2023/09/26 09:48:02;;;;;;;10.80;4.03;;;20.30;99.90;;;;;;5034017;28;20111;-50
2023/09/26 09:50:29;;;;;;;10.80;4.30;;;20.40;99.90;;;;;;5034935;28;20065;-48
2023/09/26 09:52:56;;;;;;;9.23;4.50;;;20.50;99.90;;;;;;5034132;28;20480;-54
2023/09/26 09:55:22;;;;;;;11.40;3.90;;;20.60;99.90;;;;;;5034079;28;20469;-50
2023/09/26 09:57:52;;;;;;;6.97;3.20;;;20.70;99.90;;;;;;5031266;28;20045;-49
2023/09/26 10:00:24;;;;;;;8.52;3.55;;;20.80;99.90;;;;;;5034204;28;20459;-52
2023/09/26 10:02:51;;;;;;;9.80;2.90;;;20.90;99.90;;;;;;5027593;28;20049;-52
2023/09/26 10:05:19;;;;;;;9.48;2.70;;;20.90;99.90;;;;;;5027229;28;20037;-54
2023/09/26 10:07:46;;;;;;;12.05;2.72;;;20.90;99.90;;;;;;5027417;28;20133;-48
2023/09/26 10:10:13;;;;;;;8.95;2.97;;;20.90;99.90;;;;;;5034015;28;20489;-52
2023/09/26 10:12:40;;;;;;;9.20;3.00;;;21.00;99.90;;;;;;5030797;28;20392;-50
2023/09/26 10:15:25;;;;;;;8.80;2.38;;;21.00;99.90;;;;;;5029453;28;20084;-49
2023/09/26 10:17:52;;;;;;;8.35;2.83;;;21.00;99.90;;;;;;5033877;28;20412;-50
2023/09/26 10:20:19;;;;;;;10.02;2.90;;;21.00;99.90;;;;;;5037276;28;20107;-54
2023/09/26 10:23:06;;;;;;;6.63;2.50;;;21.00;99.90;;;;;;5033823;28;20053;-52
2023/09/26 10:25:32;;;;;;;9.50;2.90;;;20.90;99.90;;;;;;5033670;28;20048;-51
2023/09/26 10:27:59;;;;;;;8.25;2.88;;;20.90;99.90;;;;;;5033513;28;20042;-48
2023/09/26 10:30:28;;;;;;;6.75;2.35;;;20.90;99.90;;;;;;5033710;28;20092;-52
2023/09/26 10:32:56;;;;;;;7.82;2.63;;;21.00;99.90;;;;;;5032283;28;20049;-51
2023/09/26 10:35:23;;;;;;;8.75;2.90;;;21.00;99.90;;;;;;5033275;28;20076;-51
2023/09/26 10:37:52;;;;;;;10.05;2.80;;;21.10;99.90;;;;;;5033428;28;20040;-49
2023/09/26 10:40:19;;;;;;;8.93;2.92;;;21.10;99.90;;;;;;5033452;28;20034;-47
2023/09/26 10:42:46;;;;;;;7.95;2.60;;;21.10;99.90;;;;;;5032835;28;20061;-50
2023/09/26 10:45:33;;;;;;;9.52;3.00;;;21.20;99.90;;;;;;5033376;28;20128;-49
2023/09/26 10:48:00;;;;;;;12.55;3.13;;;21.20;99.90;;;;;;5033254;28;20382;-51
2023/09/26 10:50:42;;;;;;;7.03;2.53;;;21.20;99.90;;;;;;4995639;28;1199327;-56
2023/09/26 10:53:09;;;;;;;12.82;3.30;;;21.20;99.90;;;;;;5033773;28;20412;-54
2023/09/26 10:55:36;;;;;;;12.50;2.67;;;21.20;99.90;;;;;;5034173;28;20358;-48
2023/09/26 10:58:03;;;;;;;7.22;2.08;;;21.30;99.90;;;;;;5033612;28;20057;-52
2023/09/26 11:00:30;;;;;;;7.80;2.60;;;21.30;99.90;;;;;;5033864;28;20045;-50
2023/09/26 11:02:57;;;;;;;7.82;2.03;;;21.40;99.90;;;;;;5033739;28;20125;-49
2023/09/26 11:05:30;;;;;;;6.68;2.45;;;21.50;99.90;;;;;;5033850;28;20038;-53
2023/09/26 11:07:57;;;;;;;8.85;2.50;;;21.40;99.90;;;;;;5033780;28;20045;-52
2023/09/26 11:10:25;;;;;;;7.70;2.40;;;21.50;99.90;;;;;;5033970;28;20492;-54
2023/09/26 11:12:52;;;;;;;7.40;2.33;;;21.60;99.90;;;;;;5034048;28;20042;-52
2023/09/26 11:15:19;;;;;;;7.10;2.20;;;21.60;99.90;;;;;;5033585;28;20065;-52
2023/09/26 11:17:46;;;;;;;7.65;2.28;;;21.60;99.90;;;;;;5032847;28;20473;-52
2023/09/26 11:20:13;;;;;;;9.07;2.10;;;21.70;99.90;;;;;;5033533;28;20049;-51
2023/09/26 11:22:39;;;;;;;6.90;2.20;;;21.80;99.90;;;;;;5033392;28;20068;-50
2023/09/26 11:25:06;;;;;;;4.63;1.73;;;21.90;99.90;;;;;;5033557;28;20045;-50
2023/09/26 11:27:33;;;;;;;5.47;1.67;;;21.90;99.90;;;;;;5032148;28;20136;-51
2023/09/26 11:30:01;;;;;;;4.65;1.48;;;22.00;99.90;;;;;;5033486;28;20040;-50
2023/09/26 11:32:27;;;;;;;7.22;2.20;;;22.00;99.90;;;;;;5033582;28;20048;-54
2023/09/26 11:34:54;;;;;;;4.85;1.80;;;22.10;99.90;;;;;;5033403;28;20033;-49
2023/09/26 11:37:21;;;;;;;5.75;1.92;;;22.10;99.90;;;;;;5033094;28;20042;-50
2023/09/26 11:39:48;;;;;;;5.47;2.13;;;22.30;99.90;;;;;;5033545;28;20048;-49
2023/09/26 11:42:17;;;;;;;7.15;2.00;;;22.40;99.90;;;;;;5031893;28;20041;-51
2023/09/26 11:44:44;;;;;;;5.97;1.80;;;22.50;99.90;;;;;;5032025;28;20141;-56
2023/09/26 11:47:10;;;;;;;6.38;2.28;;;22.50;99.90;;;;;;5033000;28;20037;-56
2023/09/26 11:49:37;;;;;;;7.75;2.10;;;22.60;99.90;;;;;;5032035;28;20409;-51
2023/09/26 11:52:04;;;;;;;4.50;1.98;;;22.60;99.90;;;;;;5033117;28;20516;-54
2023/09/26 11:54:31;;;;;;;7.68;2.35;;;22.60;99.90;;;;;;5033095;28;20459;-55
2023/09/26 11:56:58;;;;;;;5.50;2.03;;;22.70;99.90;;;;;;5032614;28;20053;-53
2023/09/26 11:59:25;;;;;;;4.60;1.83;;;22.70;99.90;;;;;;5031882;28;20110;-50
2023/09/26 12:01:54;;;;;;;5.55;2.15;;;22.70;99.90;;;;;;5032288;28;20041;-54
2023/09/26 12:04:21;;;;;;;15.95;2.47;;;22.80;99.90;;;;;;5033451;28;20066;-51
2023/09/26 12:06:48;;;;;;;8.93;2.17;;;22.70;99.90;;;;;;5032422;28;20054;-52
2023/09/26 12:09:14;;;;;;;4.72;2.05;;;22.80;99.90;;;;;;5033380;28;20049;-54
2023/09/26 12:11:42;;;;;;;5.22;1.95;;;22.90;99.90;;;;;;5032425;28;20041;-58
2023/09/26 12:14:09;;;;;;;4.60;1.90;;;22.90;99.90;;;;;;5033500;28;20121;-52
2023/09/26 12:16:35;;;;;;;4.80;1.90;;;23.00;99.90;;;;;;5033127;28;20037;-55
2023/09/26 12:19:02;;;;;;;4.20;1.77;;;22.90;99.90;;;;;;5024292;28;20400;-54
2023/09/26 12:21:29;;;;;;;5.00;1.80;;;22.80;99.90;;;;;;5033400;28;20376;-54
2023/09/26 12:23:56;;;;;;;5.50;2.20;;;22.70;99.90;;;;;;5032426;28;20122;-52
2023/09/26 12:26:23;;;;;;;5.22;2.08;;;22.60;99.90;;;;;;5032146;28;20052;-54
2023/09/26 12:28:50;;;;;;;4.80;2.00;;;22.60;99.90;;;;;;5032741;28;20059;-54
2023/09/26 12:31:16;;;;;;;6.45;2.33;;;22.60;99.90;;;;;;5031609;28;20521;-58
2023/09/26 12:33:43;;;;;;;6.45;2.05;;;22.70;99.90;;;;;;5032683;28;20108;-57
2023/09/26 12:36:10;;;;;;;5.75;2.15;;;22.70;99.90;;;;;;5028896;28;20034;-55
2023/09/26 12:38:37;;;;;;;6.20;2.03;;;22.70;99.90;;;;;;5025766;28;20046;-57
2023/09/26 12:41:04;;;;;;;10.38;2.13;;;22.70;99.90;;;;;;5031533;28;20485;-57